createdAt,value
2018-09-11T00:01:57.653Z,19.30
2018-09-11T00:04:29.097Z,19.20
2018-09-11T00:06:59.854Z,19.20
2018-09-11T00:09:31.040Z,19.20
2018-09-11T00:12:02.099Z,19.10
2018-09-11T00:14:33.797Z,19.10
2018-09-11T00:17:05.145Z,19.00
2018-09-11T00:19:35.935Z,19.00
2018-09-11T00:22:45.587Z,19.00
2018-09-11T00:25:25.542Z,18.90
2018-09-11T00:27:58.987Z,18.90
2018-09-11T00:30:32.229Z,18.80
2018-09-11T00:33:03.617Z,18.80
2018-09-11T00:35:34.536Z,18.70
2018-09-11T00:38:05.178Z,18.70
2018-09-11T00:40:37.730Z,18.70
2018-09-11T00:43:11.027Z,18.60
2018-09-11T00:45:43.827Z,18.60
2018-09-11T00:48:15.377Z,18.60
2018-09-11T00:50:47.913Z,18.60
2018-09-11T00:53:21.641Z,18.60
2018-09-11T00:55:55.664Z,18.60
2018-09-11T00:58:31.011Z,18.60
2018-09-11T01:01:06.867Z,17.60
2018-09-11T01:03:41.950Z,18.60
2018-09-11T01:06:16.627Z,18.60
2018-09-11T01:08:52.380Z,18.60
2018-09-11T01:11:28.849Z,18.60
2018-09-11T01:14:06.340Z,18.70
2018-09-11T01:16:40.867Z,18.60
2018-09-11T01:19:15.489Z,18.60
2018-09-11T01:21:53.705Z,18.60
2018-09-11T01:24:29.351Z,18.50
2018-09-11T01:27:02.953Z,18.60
2018-09-11T01:29:36.759Z,18.50
2018-09-11T01:32:11.381Z,18.60
2018-09-11T01:34:42.638Z,18.50
2018-09-11T01:37:19.209Z,18.50
2018-09-11T01:39:55.430Z,18.50
2018-09-11T01:42:28.047Z,18.50
2018-09-11T01:44:58.992Z,18.50
2018-09-11T01:47:33.828Z,18.50
2018-09-11T01:50:10.286Z,18.50
2018-09-11T01:52:44.908Z,18.50
2018-09-11T01:55:22.720Z,18.50
2018-09-11T01:57:54.936Z,19.00
2018-09-11T02:00:26.064Z,18.50
2018-09-11T02:03:00.047Z,18.50
2018-09-11T02:05:32.637Z,18.50
2018-09-11T02:08:07.345Z,18.50
2018-09-11T02:10:44.529Z,18.50
2018-09-11T02:13:19.478Z,19.10
2018-09-11T02:15:52.042Z,18.50
2018-09-11T02:18:25.682Z,18.50
2018-09-11T02:20:58.443Z,18.50
2018-09-11T02:23:33.665Z,18.50
2018-09-11T02:26:06.757Z,18.50
2018-09-11T02:28:41.804Z,18.50
2018-09-11T02:31:12.702Z,18.50
2018-09-11T02:33:44.842Z,18.50
2018-09-11T02:36:16.872Z,18.50
2018-09-11T02:38:52.001Z,18.50
2018-09-11T02:41:26.430Z,18.50
2018-09-11T02:44:00.436Z,18.50
2018-09-11T02:46:35.889Z,18.60
2018-09-11T02:49:08.983Z,18.50
2018-09-11T02:51:42.588Z,18.50
2018-09-11T02:54:15.428Z,18.50
2018-09-11T02:56:46.561Z,18.50
2018-09-11T02:59:18.135Z,18.50
2018-09-11T03:01:52.353Z,18.50
2018-09-11T03:04:23.380Z,18.50
2018-09-11T03:06:55.748Z,18.50
2018-09-11T03:09:28.942Z,18.50
2018-09-11T03:12:01.723Z,18.50
2018-09-11T03:14:38.459Z,18.50
2018-09-11T03:17:12.098Z,18.50
2018-09-11T03:19:44.870Z,18.50
2018-09-11T03:22:16.147Z,18.40
2018-09-11T03:24:47.871Z,18.40
2018-09-11T03:27:20.474Z,18.40
2018-09-11T03:29:51.289Z,18.40
2018-09-11T03:32:22.632Z,18.50
2018-09-11T03:34:53.941Z,18.50
2018-09-11T03:37:24.715Z,18.50
2018-09-11T03:40:01.406Z,18.50
2018-09-11T03:42:39.606Z,18.60
2018-09-11T03:45:11.425Z,18.60
2018-09-11T03:47:43.433Z,18.60
2018-09-11T03:50:15.710Z,18.70
2018-09-11T03:52:49.622Z,18.70
2018-09-11T03:55:24.249Z,18.70
2018-09-11T03:57:59.621Z,19.10
2018-09-11T04:00:32.770Z,18.80
2018-09-11T04:03:05.688Z,18.80
2018-09-11T04:05:40.123Z,18.80
2018-09-11T04:08:14.412Z,18.80
2018-09-11T04:10:48.115Z,18.90
2018-09-11T04:13:19.702Z,19.00
2018-09-11T04:15:51.107Z,19.00
2018-09-11T04:18:21.898Z,19.00
2018-09-11T04:20:53.088Z,19.10
2018-09-11T04:23:23.902Z,19.10
2018-09-11T04:25:57.025Z,19.10
2018-09-11T04:28:28.908Z,19.10
2018-09-11T04:31:00.218Z,19.30
2018-09-11T04:33:33.844Z,19.10
2018-09-11T04:36:05.934Z,19.10
2018-09-11T04:38:38.685Z,19.10
2018-09-11T04:41:10.651Z,19.10
2018-09-11T04:43:43.771Z,19.10
2018-09-11T04:46:18.263Z,19.10
2018-09-11T04:48:53.296Z,19.10
2018-09-11T04:51:24.560Z,19.10
2018-09-11T04:53:59.181Z,19.10
2018-09-11T04:56:34.150Z,19.00
2018-09-11T04:59:07.915Z,19.10
2018-09-11T05:01:40.412Z,19.10
2018-09-11T05:04:11.514Z,19.00
2018-09-11T05:06:43.577Z,19.00
2018-09-11T05:09:18.365Z,19.10
2018-09-11T05:11:51.154Z,18.10
2018-09-11T05:14:25.184Z,19.00
2018-09-11T05:16:56.880Z,19.00
2018-09-11T05:19:28.000Z,19.00
2018-09-11T05:21:58.798Z,19.00
2018-09-11T05:24:37.104Z,19.00
2018-09-11T05:27:08.320Z,19.00
2018-09-11T05:29:39.304Z,19.00
2018-09-11T05:32:10.786Z,18.90
2018-09-11T05:34:42.872Z,18.40
2018-09-11T05:37:14.034Z,19.00
2018-09-11T05:39:45.438Z,19.00
2018-09-11T05:42:18.936Z,19.00
2018-09-11T05:44:50.266Z,19.00
2018-09-11T05:47:21.374Z,19.00
2018-09-11T05:49:52.440Z,19.10
2018-09-11T05:52:23.373Z,19.10
2018-09-11T05:54:55.884Z,19.10
2018-09-11T05:57:27.156Z,19.10
2018-09-11T05:59:59.755Z,19.10
2018-09-11T06:02:33.375Z,19.10
2018-09-11T06:05:06.227Z,19.10
2018-09-11T06:07:38.137Z,19.10
2018-09-11T06:10:13.103Z,19.10
2018-09-11T06:12:45.830Z,19.10
2018-09-11T06:15:18.338Z,19.20
2018-09-11T06:17:49.653Z,19.20
2018-09-11T06:20:20.882Z,19.20
2018-09-11T06:22:52.351Z,19.20
2018-09-11T06:25:25.186Z,19.20
2018-09-11T06:27:57.434Z,19.20
2018-09-11T06:30:29.654Z,19.20
2018-09-11T06:33:01.943Z,19.20
2018-09-11T06:35:34.359Z,19.20
2018-09-11T06:38:05.711Z,19.30
2018-09-11T06:40:36.691Z,19.30
2018-09-11T06:43:09.487Z,19.30
2018-09-11T06:45:43.194Z,19.30
2018-09-11T06:48:14.482Z,19.40
2018-09-11T06:50:46.814Z,19.40
2018-09-11T06:53:17.429Z,19.40
2018-09-11T06:55:48.767Z,19.50
2018-09-11T06:58:19.990Z,19.50
2018-09-11T07:03:36.876Z,19.60
2018-09-11T07:06:11.996Z,19.70
2018-09-11T07:08:46.526Z,19.80
2018-09-11T07:11:18.729Z,19.80
2018-09-11T07:13:50.879Z,19.80
2018-09-11T07:16:23.492Z,19.90
2018-09-11T07:18:54.387Z,19.90
2018-09-11T07:21:25.286Z,20.00
2018-09-11T07:23:55.880Z,20.00
2018-09-11T07:26:27.363Z,20.10
2018-09-11T07:28:58.484Z,20.20
2018-09-11T07:31:30.317Z,20.20
2018-09-11T07:34:05.869Z,20.30
2018-09-11T07:36:42.112Z,20.30
2018-09-11T07:39:14.352Z,20.40
2018-09-11T07:41:49.017Z,20.40
2018-09-11T07:44:25.382Z,20.50
2018-09-11T07:47:00.148Z,20.50
2018-09-11T07:49:39.410Z,20.80
2018-09-11T07:52:11.384Z,20.60
2018-09-11T07:54:42.472Z,20.70
2018-09-11T07:57:13.327Z,20.80
2018-09-11T07:59:46.114Z,20.80
2018-09-11T08:02:20.914Z,20.90
2018-09-11T08:04:51.885Z,20.90
2018-09-11T08:07:23.021Z,21.00
2018-09-11T08:09:55.014Z,21.10
2018-09-11T08:12:25.902Z,21.10
2018-09-11T08:14:56.856Z,21.20
2018-09-11T08:17:27.746Z,21.20
2018-09-11T08:19:59.826Z,21.30
2018-09-11T08:22:30.757Z,21.40
2018-09-11T08:25:03.057Z,21.40
2018-09-11T08:27:35.261Z,21.50
2018-09-11T08:30:07.320Z,21.60
2018-09-11T08:32:39.077Z,21.60
2018-09-11T08:35:10.515Z,21.70
2018-09-11T08:37:42.353Z,21.80
2018-09-11T08:40:13.976Z,22.00
2018-09-11T08:42:46.359Z,22.00
2018-09-11T08:45:17.765Z,22.10
2018-09-11T08:47:50.351Z,22.20
2018-09-11T08:50:21.147Z,22.30
2018-09-11T08:52:51.913Z,22.30
2018-09-11T08:55:24.077Z,22.40
2018-09-11T08:57:55.257Z,22.50
2018-09-11T09:00:25.911Z,22.60
2018-09-11T09:02:57.603Z,22.70
2018-09-11T09:05:28.387Z,22.80
2018-09-11T09:07:59.334Z,22.90
2018-09-11T09:10:30.359Z,23.10
2018-09-11T09:13:01.281Z,23.20
2018-09-11T09:15:32.790Z,23.30
2018-09-11T09:18:04.368Z,23.40
2018-09-11T09:20:36.121Z,23.50
2018-09-11T09:23:07.721Z,22.90
2018-09-11T09:25:38.616Z,23.70
2018-09-11T09:28:09.906Z,23.80
2018-09-11T09:30:42.088Z,23.80
2018-09-11T09:33:13.235Z,24.00
2018-09-11T09:35:44.054Z,24.10
2018-09-11T09:38:16.049Z,24.20
2018-09-11T09:40:47.373Z,24.40
2018-09-11T09:43:18.194Z,24.50
2018-09-11T09:45:49.701Z,24.70
2018-09-11T09:48:21.640Z,24.90
2018-09-11T09:50:52.686Z,25.10
2018-09-11T09:53:24.741Z,25.40
2018-09-11T09:55:55.750Z,25.60
2018-09-11T09:58:28.619Z,25.90
2018-09-11T10:01:07.575Z,26.20
2018-09-11T10:03:39.541Z,26.60
2018-09-11T10:06:12.093Z,26.90
2018-09-11T10:08:44.008Z,27.20
2018-09-11T10:11:16.879Z,27.50
2018-09-11T10:13:49.726Z,27.80
2018-09-11T10:16:21.153Z,28.10
2018-09-11T10:18:55.132Z,28.40
2018-09-11T10:21:28.154Z,28.70
2018-09-11T10:24:02.232Z,29.10
2018-09-11T10:26:35.072Z,29.40
2018-09-11T10:29:12.307Z,29.70
2018-09-11T10:31:44.617Z,29.90
2018-09-11T10:34:17.526Z,30.30
2018-09-11T10:36:52.634Z,30.40
2018-09-11T10:39:25.243Z,30.60
2018-09-11T10:41:58.428Z,30.80
2018-09-11T10:44:30.057Z,31.00
2018-09-11T10:47:02.233Z,31.30
2018-09-11T10:49:34.382Z,31.60
2018-09-11T10:52:05.906Z,31.90
2018-09-11T10:54:39.082Z,32.30
2018-09-11T10:57:10.871Z,32.60
2018-09-11T10:59:42.567Z,33.00
2018-09-11T11:02:13.906Z,33.20
2018-09-11T11:04:45.722Z,33.50
2018-09-11T11:07:17.318Z,33.70
2018-09-11T11:09:48.461Z,34.00
2018-09-11T11:12:21.056Z,34.20
2018-09-11T11:14:52.956Z,34.50
2018-09-11T11:17:25.075Z,34.70
2018-09-11T11:19:57.727Z,34.80
2018-09-11T11:22:30.081Z,35.00
2018-09-11T11:25:01.359Z,35.20
2018-09-11T11:27:32.563Z,35.40
2018-09-11T11:30:05.025Z,35.10
2018-09-11T11:32:36.358Z,35.80
2018-09-11T11:35:07.828Z,35.90
2018-09-11T11:37:39.239Z,35.90
2018-09-11T11:40:11.547Z,36.10
2018-09-11T11:42:43.951Z,36.20
2018-09-11T11:45:15.249Z,36.40
2018-09-11T11:47:46.528Z,36.50
2018-09-11T11:50:18.812Z,36.70
2018-09-11T11:52:50.421Z,36.90
2018-09-11T11:55:22.004Z,37.10
2018-09-11T11:57:53.499Z,37.30
2018-09-11T12:00:25.230Z,37.40
2018-09-11T12:02:57.169Z,37.50
2018-09-11T12:05:28.414Z,37.50
2018-09-11T12:07:59.727Z,37.60
2018-09-11T12:10:30.958Z,37.60
2018-09-11T12:13:02.396Z,37.50
2018-09-11T12:15:33.880Z,37.70
2018-09-11T12:18:05.387Z,37.70
2018-09-11T12:20:37.880Z,37.80
2018-09-11T12:23:09.336Z,37.90
2018-09-11T12:25:40.543Z,38.00
2018-09-11T12:28:13.451Z,38.10
2018-09-11T12:30:45.199Z,38.30
2018-09-11T12:33:17.436Z,38.40
2018-09-11T12:35:48.777Z,38.60
2018-09-11T12:38:20.296Z,38.70
2018-09-11T12:40:51.287Z,38.80
2018-09-11T12:43:23.244Z,39.00
2018-09-11T12:45:54.684Z,39.20
2018-09-11T12:48:26.108Z,39.30
2018-09-11T12:50:58.058Z,39.30
2018-09-11T12:53:30.067Z,39.40
2018-09-11T12:56:02.010Z,39.30
2018-09-11T12:58:32.987Z,39.30
2018-09-11T13:01:04.134Z,39.30
2018-09-11T13:03:36.594Z,39.40
2018-09-11T13:06:07.923Z,39.40
2018-09-11T13:08:39.141Z,39.50
2018-09-11T13:11:10.359Z,39.40
2018-09-11T13:13:41.875Z,39.40
2018-09-11T13:16:13.495Z,39.20
2018-09-11T13:18:44.911Z,38.80
2018-09-11T13:21:16.117Z,38.50
2018-09-11T13:23:47.719Z,37.80
2018-09-11T13:26:19.376Z,37.40
2018-09-11T13:28:51.538Z,36.70
2018-09-11T13:31:22.728Z,36.10
2018-09-11T13:33:54.484Z,35.50
2018-09-11T13:36:26.452Z,35.00
2018-09-11T13:38:58.096Z,34.50
2018-09-11T13:41:30.353Z,34.00
2018-09-11T13:44:01.975Z,33.60
2018-09-11T13:46:33.543Z,32.00
2018-09-11T13:49:05.513Z,33.00
2018-09-11T13:51:38.103Z,32.70
2018-09-11T13:54:11.313Z,32.40
2018-09-11T13:56:43.427Z,32.10
2018-09-11T13:59:16.609Z,31.90
2018-09-11T14:01:48.015Z,31.70
2018-09-11T14:04:22.167Z,31.50
2018-09-11T14:06:54.275Z,31.40
2018-09-11T14:09:26.834Z,31.30
2018-09-11T14:11:58.177Z,31.20
2018-09-11T14:14:29.611Z,31.10
2018-09-11T14:17:02.124Z,31.00
2018-09-11T14:19:35.549Z,31.00
2018-09-11T14:22:07.727Z,30.90
2018-09-11T14:25:44.147Z,30.90
2018-09-11T14:28:15.550Z,30.90
2018-09-11T14:30:47.656Z,30.90
2018-09-11T14:33:20.347Z,30.90
2018-09-11T14:35:52.150Z,30.90
2018-09-11T14:38:24.426Z,30.90
2018-09-11T14:40:56.519Z,31.00
2018-09-11T14:43:28.118Z,31.00
2018-09-11T14:46:00.034Z,31.00
2018-09-11T14:48:31.271Z,31.00
2018-09-11T14:51:04.843Z,31.10
2018-09-11T14:53:36.996Z,31.00
2018-09-11T14:56:08.951Z,31.00
2018-09-11T14:58:42.535Z,31.00
2018-09-11T15:01:14.918Z,31.00
2018-09-11T15:03:47.484Z,30.90
2018-09-11T15:06:19.065Z,30.90
2018-09-11T15:08:50.717Z,30.80
2018-09-11T15:11:23.447Z,30.70
2018-09-11T15:13:55.008Z,30.60
2018-09-11T15:16:28.514Z,30.50
2018-09-11T15:19:00.811Z,30.50
2018-09-11T15:21:33.984Z,30.40
2018-09-11T15:24:06.219Z,30.30
2018-09-11T15:26:40.482Z,30.20
2018-09-11T15:29:18.645Z,30.20
2018-09-11T15:31:50.645Z,30.10
2018-09-11T15:34:26.178Z,30.10
2018-09-11T15:36:59.464Z,30.00
2018-09-11T15:39:31.735Z,29.90
2018-09-11T15:42:03.227Z,29.90
2018-09-11T15:44:35.425Z,29.90
2018-09-11T15:47:07.321Z,29.80
2018-09-11T15:49:40.773Z,29.70
2018-09-11T15:52:12.378Z,29.70
2018-09-11T15:54:45.568Z,29.70
2018-09-11T15:57:19.619Z,29.60
2018-09-11T15:59:51.193Z,29.60
2018-09-11T16:02:22.732Z,29.60
2018-09-11T16:04:53.986Z,29.50
2018-09-11T16:07:25.554Z,29.50
2018-09-11T16:09:57.299Z,29.50
2018-09-11T16:12:29.205Z,29.50
2018-09-11T16:15:00.716Z,29.40
2018-09-11T16:17:32.228Z,29.40
2018-09-11T16:20:03.334Z,29.30
2018-09-11T16:22:36.097Z,29.30
2018-09-11T16:25:09.762Z,29.30
2018-09-11T16:27:42.034Z,29.30
2018-09-11T16:30:14.896Z,29.20
2018-09-11T16:32:47.789Z,29.20
2018-09-11T16:35:19.973Z,29.10
2018-09-11T16:37:52.343Z,29.10
2018-09-11T16:40:24.190Z,29.10
2018-09-11T16:42:58.663Z,29.00
2018-09-11T16:45:30.932Z,29.00
2018-09-11T16:48:02.334Z,29.00
2018-09-11T16:50:34.395Z,28.90
2018-09-11T16:53:07.416Z,28.90
2018-09-11T16:55:38.939Z,28.90
2018-09-11T16:58:11.132Z,28.80
2018-09-11T17:00:42.696Z,28.80
2018-09-11T17:03:14.815Z,28.80
2018-09-11T17:05:47.588Z,28.70
2018-09-11T17:08:19.148Z,28.70
2018-09-11T17:10:53.070Z,28.60
2018-09-11T17:13:24.359Z,28.50
2018-09-11T17:15:56.769Z,28.60
2018-09-11T17:18:29.364Z,28.50
2018-09-11T17:21:03.918Z,28.50
2018-09-11T17:23:42.345Z,28.40
2018-09-11T17:26:15.952Z,28.40
2018-09-11T17:28:48.669Z,28.40
2018-09-11T17:31:20.710Z,28.30
2018-09-11T17:33:52.672Z,28.30
2018-09-11T17:36:25.055Z,28.20
2018-09-11T17:38:56.605Z,28.20
2018-09-11T17:41:28.363Z,28.10
2018-09-11T17:44:01.609Z,28.10
2018-09-11T17:46:35.212Z,28.00
2018-09-11T17:49:07.297Z,28.00
2018-09-11T17:51:45.600Z,27.90
2018-09-11T17:54:23.842Z,27.90
2018-09-11T17:56:58.248Z,27.80
2018-09-11T17:59:33.723Z,27.80
2018-09-11T18:02:11.807Z,27.70
2018-09-11T18:04:44.825Z,27.60
2018-09-11T18:07:23.071Z,27.60
2018-09-11T18:09:58.096Z,27.50
2018-09-11T18:12:33.292Z,27.50
2018-09-11T18:15:06.510Z,27.40
2018-09-11T18:17:38.339Z,27.30
2018-09-11T18:20:10.461Z,27.20
2018-09-11T18:22:41.806Z,27.20
2018-09-11T18:25:14.070Z,27.20
2018-09-11T18:27:48.843Z,27.10
2018-09-11T18:30:25.208Z,27.00
2018-09-11T18:32:59.227Z,27.00
2018-09-11T18:35:29.993Z,26.90
2018-09-11T18:38:01.653Z,26.90
2018-09-11T18:40:32.926Z,26.80
2018-09-11T18:43:12.825Z,26.70
2018-09-11T18:45:44.935Z,26.70
2018-09-11T18:48:15.814Z,26.60
2018-09-11T18:50:47.216Z,26.50
2018-09-11T18:53:25.813Z,26.50
2018-09-11T18:55:57.205Z,26.40
2018-09-11T18:58:29.355Z,26.40
2018-09-11T19:01:02.996Z,26.30
2018-09-11T19:03:35.061Z,26.30
2018-09-11T19:06:07.186Z,26.20
2018-09-11T19:08:38.697Z,26.20
2018-09-11T19:11:10.375Z,26.10
2018-09-11T19:13:41.537Z,26.10
2018-09-11T19:16:13.679Z,26.00
2018-09-11T19:18:45.875Z,26.00
2018-09-11T19:21:18.894Z,25.90
2018-09-11T19:23:50.572Z,25.90
2018-09-11T19:26:25.366Z,25.90
2018-09-11T19:29:01.012Z,25.80
2018-09-11T19:31:32.969Z,25.80
2018-09-11T19:34:05.057Z,25.80
2018-09-11T19:36:38.138Z,25.70
2018-09-11T19:39:10.692Z,25.70
2018-09-11T19:41:43.572Z,25.70
2018-09-11T19:44:15.272Z,25.60
2018-09-11T19:46:46.733Z,25.60
2018-09-11T19:49:19.320Z,25.60
2018-09-11T19:51:51.490Z,25.60
2018-09-11T19:54:22.384Z,25.50
2018-09-11T19:56:53.521Z,25.50
2018-09-11T19:59:27.810Z,25.50
2018-09-11T20:01:59.179Z,25.50
2018-09-11T20:04:32.675Z,25.40
2018-09-11T20:07:05.768Z,25.40
2018-09-11T20:09:37.777Z,25.30
2018-09-11T20:12:14.102Z,25.30
2018-09-11T20:14:46.760Z,25.30
2018-09-11T20:17:17.987Z,25.20
2018-09-11T20:19:49.061Z,25.20
2018-09-11T20:22:23.030Z,25.20
2018-09-11T20:24:54.747Z,25.20
2018-09-11T20:27:26.025Z,25.10
2018-09-11T20:29:59.144Z,25.10
2018-09-11T20:32:30.313Z,25.00
2018-09-11T20:35:01.086Z,25.00
2018-09-11T20:37:34.212Z,25.00
2018-09-11T20:40:08.818Z,24.90
2018-09-11T20:42:41.266Z,24.90
2018-09-11T20:45:13.555Z,24.80
2018-09-11T20:47:44.547Z,24.80
2018-09-11T20:50:15.875Z,24.80
2018-09-11T20:52:47.219Z,24.70
2018-09-11T20:55:19.289Z,24.70
2018-09-11T20:57:50.238Z,24.60
2018-09-11T21:00:21.957Z,24.60
2018-09-11T21:02:52.718Z,24.50
2018-09-11T21:05:27.174Z,24.50
2018-09-11T21:08:02.079Z,24.50
2018-09-11T21:10:33.059Z,24.50
2018-09-11T21:13:05.581Z,24.40
2018-09-11T21:15:36.950Z,24.40
2018-09-11T21:18:10.405Z,24.30
2018-09-11T21:20:42.247Z,24.30
2018-09-11T21:23:13.895Z,24.30
2018-09-11T21:25:45.596Z,24.20
2018-09-11T21:28:16.799Z,24.20
2018-09-11T21:30:48.524Z,24.10
2018-09-11T21:33:20.434Z,24.10
2018-09-11T21:35:51.121Z,24.10
2018-09-11T21:38:24.246Z,24.00
2018-09-11T21:40:54.918Z,24.00
2018-09-11T21:43:26.700Z,24.00
2018-09-11T21:45:57.662Z,23.90
2018-09-11T21:48:30.632Z,23.90
2018-09-11T21:51:02.347Z,23.90
2018-09-11T21:53:36.330Z,23.80
2018-09-11T21:56:08.949Z,23.80
2018-09-11T21:58:39.970Z,23.80
2018-09-11T22:01:18.562Z,23.70
2018-09-11T22:03:51.369Z,23.70
2018-09-11T22:06:25.755Z,23.70
2018-09-11T22:08:57.058Z,23.60
2018-09-11T22:11:28.773Z,23.60
2018-09-11T22:14:00.835Z,23.60
2018-09-11T22:16:32.346Z,23.60
2018-09-11T22:19:09.990Z,23.50
2018-09-11T22:21:41.013Z,23.50
2018-09-11T22:24:13.537Z,23.50
2018-09-11T22:26:45.132Z,23.50
2018-09-11T22:29:18.558Z,23.50
2018-09-11T22:31:49.944Z,23.50
2018-09-11T22:34:20.797Z,23.40
2018-09-11T22:36:51.891Z,23.50
2018-09-11T22:42:08.792Z,23.40
2018-09-11T22:44:40.462Z,23.40
2018-09-11T22:47:11.071Z,23.40
2018-09-11T22:49:42.805Z,23.30
2018-09-11T22:52:21.042Z,23.30
2018-09-11T22:54:52.281Z,23.30
2018-09-11T22:57:24.570Z,23.30
2018-09-11T22:59:55.879Z,23.30
2018-09-11T23:02:27.189Z,23.30
2018-09-11T23:04:58.274Z,23.30
2018-09-11T23:07:29.580Z,23.30
2018-09-11T23:10:00.192Z,23.30
2018-09-11T23:12:30.902Z,23.30
2018-09-11T23:15:01.921Z,23.20
2018-09-11T23:17:32.793Z,23.20
2018-09-11T23:20:04.370Z,23.20
2018-09-11T23:22:35.524Z,23.20
2018-09-11T23:25:07.135Z,23.20
2018-09-11T23:27:38.396Z,23.10
2018-09-11T23:30:09.751Z,23.10
2018-09-11T23:32:41.230Z,23.10
2018-09-11T23:35:12.366Z,23.10
2018-09-11T23:37:43.752Z,23.10
2018-09-11T23:40:14.766Z,23.00
2018-09-11T23:42:46.601Z,23.00
2018-09-11T23:45:17.614Z,23.00
2018-09-11T23:47:48.674Z,23.00
2018-09-11T23:50:20.268Z,22.90
2018-09-11T23:52:52.116Z,23.00
2018-09-11T23:55:27.710Z,23.00
2018-09-11T23:57:59.686Z,23.00
